GCXOGCLA

Guest
Details From GCXO - Tenerife Norte - Los Rodeos
To GCLA - La Palma
Flight Number -
Tags decoded
Created
Modified
Stats Distance 7,703 nm / 14,266 km
Max Altitude 0 ft / 0 m
Waypoints 5
Social Downloads 0
Likes 0
Share VATSIM

Download

Looking for another format? Having issues loading an existing format? Contact us
Advertisement - Login to hide

Notes

Requested: GCXO TESEL ARACO LA PALMA MDB GCLA

Route

GCXO TESEL LA PALMA GCLA

ID Type Via Altitude Latitude Longitude Leg Dist Tot Dist Heading (true) Name
O GCXO APT - 0 ft / 0 m 28.48266˚ -16.34154˚ - 0 nm - Tenerife Norte - Los Rodeos
TESEL FIX - 0 ft / 0 m 28.48829˚ -16.83325˚ 25 nm 25 nm 271° / 271° -
LA NDB - 0 ft / 0 m 27.93539˚ -82.07581˚ 3406 nm 3432 nm 286° / 253° WIREY NDB
PALMA FIX - 0 ft / 0 m 21.01500˚ -87.28083˚ 503 nm 3936 nm 216° / 213° -
O GCLA APT - 0 ft / 0 m 28.62648˚ -17.75561˚ 3766 nm 7702 nm 68° / 100° La Palma

Altitude Profile

Advertisement - Login to hide

Weather


0- 5 10 15 20 25 30 35+ Temperature / ° C

Clouds and Precipitation
Forecast for 2018-05-23 06:00 UTC. Updated an hour ago

Ground ~20,000 ft ~40,000 ft Winds

GCXO

Details ICAO GCXO (TFN)
Name Tenerife Norte - Los Rodeos
Region Canary Islands
Timezone Atlantic/Canary (UTC+1.0)
Stats Elevation 2,076 ft / 633 m (AMSL)
Location 28.482656° -16.341541°
Runways 1
Magnetic Variation 4.952° W

METAR

GCXO 230400Z AUTO 32008KT 300V010 7000 2000NW -RA VV002 13/13 Q1018

Decode

TAF

TAF GCXO 230200Z 2303/2403 32010KT 9999 BKN015 TX18/2314Z TN11/2305Z TEMPO 2303/2309 4000 DZRA BCFG BKN006 PROB30 TEMPO 2303/2309 1000 RA BCFG BKN005 PROB30 TEMPO 2303/2308 0500 DZRA BCFG BKN002

Decode

Departure Runways

ID Width Length Bearing (true) Bearing (mag) Surface Threshold Offset Overrun Length
12 148 ft / 45 m 11,165 ft / 3,403 m 110.67° 115.62° Asphalt 0 ft / 0 m 197 ft / 60 m
30 148 ft / 45 m 11,165 ft / 3,403 m 290.69° 295.64° Asphalt 0 ft / 0 m 197 ft / 60 m

GCLA

Details ICAO GCLA (SPC)
Name La Palma
Region Canary Islands
Timezone Atlantic/Canary (UTC+1.0)
Stats Elevation 107 ft / 33 m (AMSL)
Location 28.626480° -17.755613°
Runways 1
Magnetic Variation 5.470° W

METAR

GCLA 230400Z AUTO 26003KT 9999 FEW048 OVC056 18/11 Q1017

Decode

TAF

TAF GCLA 230200Z 2303/2403 30003KT 9999 BKN035 TX21/2314Z TN16/2305Z PROB40 TEMPO 2317/2322 18010KT

Decode

Destination Runways

ID Width Length Bearing (true) Bearing (mag) Surface Threshold Offset Overrun Length
01 148 ft / 45 m 7,240 ft / 2,207 m 359.02° 4.49° Asphalt 0 ft / 0 m 279 ft / 85 m
19 148 ft / 45 m 7,240 ft / 2,207 m 179.02° 184.49° Asphalt 0 ft / 0 m 236 ft / 72 m

Popular Alternatives